sensor_id;sensor_type;location;lat;lon;timestamp;P1;durP1;ratioP1;P2;durP2;ratioP2
57461;SDS011;43308;47.306;8.608;2022-08-21T07:31:10;1.40;;;1.20;;
57461;SDS011;43308;47.306;8.608;2022-08-21T07:33:40;1.75;;;1.30;;
57461;SDS011;43308;47.306;8.608;2022-08-21T07:36:08;1.73;;;1.40;;
57461;SDS011;43308;47.306;8.608;2022-08-21T07:38:35;1.40;;;1.30;;
57461;SDS011;43308;47.306;8.608;2022-08-21T07:41:05;1.20;;;1.02;;
57461;SDS011;43308;47.306;8.608;2022-08-21T07:43:37;1.27;;;1.13;;
57461;SDS011;43308;47.306;8.608;2022-08-21T07:46:04;1.45;;;0.95;;
57461;SDS011;43308;47.306;8.608;2022-08-21T07:48:35;1.13;;;1.13;;
57461;SDS011;43308;47.306;8.608;2022-08-21T07:51:02;1.10;;;1.10;;
57461;SDS011;43308;47.306;8.608;2022-08-21T07:53:35;1.77;;;1.10;;
57461;SDS011;43308;47.306;8.608;2022-08-21T07:56:04;3.10;;;1.08;;
57461;SDS011;43308;47.306;8.608;2022-08-21T07:58:32;1.85;;;1.75;;
57461;SDS011;43308;47.306;8.608;2022-08-21T08:00:59;1.70;;;1.60;;
57461;SDS011;43308;47.306;8.608;2022-08-21T08:03:26;4.25;;;1.05;;
57461;SDS011;43308;47.306;8.608;2022-08-21T08:05:55;1.13;;;1.10;;
57461;SDS011;43308;47.306;8.608;2022-08-21T08:08:24;1.30;;;1.13;;
57461;SDS011;43308;47.306;8.608;2022-08-21T08:10:51;1.50;;;1.40;;
57461;SDS011;43308;47.306;8.608;2022-08-21T08:13:19;1.50;;;1.40;;
57461;SDS011;43308;47.306;8.608;2022-08-21T08:15:46;1.58;;;1.30;;
57461;SDS011;43308;47.306;8.608;2022-08-21T08:18:12;1.45;;;1.33;;
57461;SDS011;43308;47.306;8.608;2022-08-21T08:20:39;1.70;;;1.55;;
57461;SDS011;43308;47.306;8.608;2022-08-21T08:23:08;2.10;;;2.00;;
57461;SDS011;43308;47.306;8.608;2022-08-21T08:25:36;2.17;;;2.08;;
57461;SDS011;43308;47.306;8.608;2022-08-21T08:28:03;2.00;;;1.88;;
57461;SDS011;43308;47.306;8.608;2022-08-21T08:30:32;2.53;;;2.00;;
57461;SDS011;43308;47.306;8.608;2022-08-21T08:32:59;2.03;;;1.83;;
57461;SDS011;43308;47.306;8.608;2022-08-21T08:35:26;2.95;;;2.45;;
57461;SDS011;43308;47.306;8.608;2022-08-21T08:37:54;2.92;;;2.50;;
57461;SDS011;43308;47.306;8.608;2022-08-21T08:40:25;3.40;;;3.10;;
57461;SDS011;43308;47.306;8.608;2022-08-21T08:43:01;2.92;;;2.38;;
57461;SDS011;43308;47.306;8.608;2022-08-21T08:45:28;3.63;;;2.17;;
57461;SDS011;43308;47.306;8.608;2022-08-21T08:47:58;2.35;;;2.10;;
57461;SDS011;43308;47.306;8.608;2022-08-21T08:50:35;2.13;;;1.92;;
57461;SDS011;43308;47.306;8.608;2022-08-21T08:53:09;2.00;;;1.88;;
57461;SDS011;43308;47.306;8.608;2022-08-21T08:55:41;2.50;;;1.80;;
57461;SDS011;43308;47.306;8.608;2022-08-21T08:58:11;1.83;;;1.73;;
57461;SDS011;43308;47.306;8.608;2022-08-21T09:00:43;1.92;;;1.83;;
57461;SDS011;43308;47.306;8.608;2022-08-21T09:03:13;1.77;;;1.30;;
57461;SDS011;43308;47.306;8.608;2022-08-21T09:05:43;1.50;;;1.38;;
57461;SDS011;43308;47.306;8.608;2022-08-21T09:08:25;3.45;;;1.40;;
57461;SDS011;43308;47.306;8.608;2022-08-21T09:11:10;1.98;;;1.45;;
57461;SDS011;43308;47.306;8.608;2022-08-21T09:13:46;1.90;;;1.70;;
57461;SDS011;43308;47.306;8.608;2022-08-21T09:16:20;1.20;;;1.13;;
57461;SDS011;43308;47.306;8.608;2022-08-21T09:19:00;2.35;;;1.50;;
57461;SDS011;43308;47.306;8.608;2022-08-21T09:21:37;1.88;;;1.77;;
57461;SDS011;43308;47.306;8.608;2022-08-21T09:24:16;2.95;;;1.58;;
57461;SDS011;43308;47.306;8.608;2022-08-21T09:27:00;2.05;;;1.90;;
57461;SDS011;43308;47.306;8.608;2022-08-21T09:29:33;2.08;;;1.63;;
57461;SDS011;43308;47.306;8.608;2022-08-21T09:32:03;1.40;;;1.30;;
57461;SDS011;43308;47.306;8.608;2022-08-21T09:34:35;1.35;;;1.20;;
57461;SDS011;43308;47.306;8.608;2022-08-21T09:37:02;1.23;;;1.13;;
57461;SDS011;43308;47.306;8.608;2022-08-21T09:39:30;1.10;;;1.10;;
57461;SDS011;43308;47.306;8.608;2022-08-21T09:42:05;1.38;;;1.02;;
57461;SDS011;43308;47.306;8.608;2022-08-21T09:44:34;1.63;;;1.52;;
57461;SDS011;43308;47.306;8.608;2022-08-21T09:47:06;1.55;;;1.45;;
57461;SDS011;43308;47.306;8.608;2022-08-21T09:49:34;2.40;;;1.10;;
57461;SDS011;43308;47.306;8.608;2022-08-21T09:52:03;1.17;;;1.10;;
57461;SDS011;43308;47.306;8.608;2022-08-21T09:54:34;1.10;;;1.10;;
57461;SDS011;43308;47.306;8.608;2022-08-21T09:57:12;2.00;;;1.17;;
57461;SDS011;43308;47.306;8.608;2022-08-21T10:00:08;0.80;;;0.80;;
57461;SDS011;43308;47.306;8.608;2022-08-21T10:02:41;0.90;;;0.90;;
57461;SDS011;43308;47.306;8.608;2022-08-21T10:05:15;0.75;;;0.70;;
57461;SDS011;43308;47.306;8.608;2022-08-21T10:07:44;1.05;;;0.90;;
57461;SDS011;43308;47.306;8.608;2022-08-21T10:10:14;0.70;;;0.70;;
57461;SDS011;43308;47.306;8.608;2022-08-21T10:12:47;0.88;;;0.75;;
57461;SDS011;43308;47.306;8.608;2022-08-21T10:15:22;0.80;;;0.80;;
57461;SDS011;43308;47.306;8.608;2022-08-21T10:17:57;1.20;;;0.63;;
57461;SDS011;43308;47.306;8.608;2022-08-21T10:20:32;0.60;;;0.60;;
57461;SDS011;43308;47.306;8.608;2022-08-21T10:23:20;0.95;;;0.77;;
57461;SDS011;43308;47.306;8.608;2022-08-21T10:26:05;0.60;;;0.50;;
57461;SDS011;43308;47.306;8.608;2022-08-21T10:28:47;1.05;;;1.05;;
57461;SDS011;43308;47.306;8.608;2022-08-21T10:31:27;3.30;;;1.10;;
57461;SDS011;43308;47.306;8.608;2022-08-21T10:34:07;0.90;;;0.90;;
57461;SDS011;43308;47.306;8.608;2022-08-21T10:36:46;1.02;;;1.02;;
57461;SDS011;43308;47.306;8.608;2022-08-21T10:39:22;0.85;;;0.82;;
57461;SDS011;43308;47.306;8.608;2022-08-21T10:42:11;2.97;;;1.00;;
57461;SDS011;43308;47.306;8.608;2022-08-21T10:44:52;1.00;;;1.00;;
57461;SDS011;43308;47.306;8.608;2022-08-21T10:47:32;3.78;;;1.67;;
57461;SDS011;43308;47.306;8.608;2022-08-21T10:50:04;2.78;;;1.30;;
57461;SDS011;43308;47.306;8.608;2022-08-21T10:52:49;1.92;;;0.75;;
57461;SDS011;43308;47.306;8.608;2022-08-21T10:55:33;1.25;;;0.90;;
57461;SDS011;43308;47.306;8.608;2022-08-21T10:58:05;1.70;;;0.73;;
57461;SDS011;43308;47.306;8.608;2022-08-21T11:00:40;0.70;;;0.70;;
57461;SDS011;43308;47.306;8.608;2022-08-21T11:03:13;1.45;;;0.80;;
57461;SDS011;43308;47.306;8.608;2022-08-21T11:05:44;1.83;;;0.77;;
57461;SDS011;43308;47.306;8.608;2022-08-21T11:08:17;1.40;;;0.50;;
57461;SDS011;43308;47.306;8.608;2022-08-21T11:10:50;0.45;;;0.45;;
57461;SDS011;43308;47.306;8.608;2022-08-21T11:13:25;0.40;;;0.40;;
57461;SDS011;43308;47.306;8.608;2022-08-21T11:16:02;1.00;;;0.60;;
57461;SDS011;43308;47.306;8.608;2022-08-21T11:18:38;0.40;;;0.32;;
57461;SDS011;43308;47.306;8.608;2022-08-21T11:21:14;1.48;;;0.30;;
57461;SDS011;43308;47.306;8.608;2022-08-21T11:23:53;0.60;;;0.60;;
57461;SDS011;43308;47.306;8.608;2022-08-21T11:26:30;0.98;;;0.73;;
57461;SDS011;43308;47.306;8.608;2022-08-21T11:29:07;0.82;;;0.75;;
57461;SDS011;43308;47.306;8.608;2022-08-21T11:31:44;1.48;;;0.70;;
57461;SDS011;43308;47.306;8.608;2022-08-21T11:34:25;1.60;;;0.88;;
57461;SDS011;43308;47.306;8.608;2022-08-21T11:37:03;1.33;;;0.45;;
57461;SDS011;43308;47.306;8.608;2022-08-21T11:39:38;0.60;;;0.50;;
57461;SDS011;43308;47.306;8.608;2022-08-21T11:42:18;0.55;;;0.52;;
57461;SDS011;43308;47.306;8.608;2022-08-21T11:45:00;2.33;;;0.90;;
57461;SDS011;43308;47.306;8.608;2022-08-21T11:47:45;1.20;;;0.50;;
57461;SDS011;43308;47.306;8.608;2022-08-21T11:50:21;1.75;;;0.63;;
57461;SDS011;43308;47.306;8.608;2022-08-21T11:52:53;1.92;;;0.65;;
57461;SDS011;43308;47.306;8.608;2022-08-21T11:55:26;0.60;;;0.60;;
57461;SDS011;43308;47.306;8.608;2022-08-21T11:57:59;0.85;;;0.63;;
57461;SDS011;43308;47.306;8.608;2022-08-21T12:00:34;1.95;;;0.63;;
57461;SDS011;43308;47.306;8.608;2022-08-21T12:03:08;2.35;;;0.60;;
57461;SDS011;43308;47.306;8.608;2022-08-21T12:05:42;1.13;;;0.50;;
57461;SDS011;43308;47.306;8.608;2022-08-21T12:08:26;1.60;;;0.60;;
57461;SDS011;43308;47.306;8.608;2022-08-21T12:11:02;1.50;;;0.50;;
57461;SDS011;43308;47.306;8.608;2022-08-21T12:16:09;1.70;;;0.68;;
57461;SDS011;43308;47.306;8.608;2022-08-21T12:18:40;0.90;;;0.60;;
57461;SDS011;43308;47.306;8.608;2022-08-21T12:21:20;0.65;;;0.40;;
57461;SDS011;43308;47.306;8.608;2022-08-21T12:23:59;0.93;;;0.60;;
57461;SDS011;43308;47.306;8.608;2022-08-21T12:26:29;0.90;;;0.50;;
57461;SDS011;43308;47.306;8.608;2022-08-21T12:29:07;2.10;;;1.25;;
57461;SDS011;43308;47.306;8.608;2022-08-21T12:31:47;1.63;;;0.95;;
57461;SDS011;43308;47.306;8.608;2022-08-21T12:34:18;2.35;;;1.77;;
57461;SDS011;43308;47.306;8.608;2022-08-21T12:36:49;3.70;;;1.55;;
57461;SDS011;43308;47.306;8.608;2022-08-21T12:41:51;1.73;;;0.77;;
57461;SDS011;43308;47.306;8.608;2022-08-21T12:44:24;2.42;;;1.00;;
57461;SDS011;43308;47.306;8.608;2022-08-21T12:47:02;2.42;;;1.10;;
57461;SDS011;43308;47.306;8.608;2022-08-21T12:49:35;2.47;;;0.95;;
57461;SDS011;43308;47.306;8.608;2022-08-21T12:52:11;1.30;;;1.20;;
57461;SDS011;43308;47.306;8.608;2022-08-21T12:54:43;2.63;;;0.70;;
57461;SDS011;43308;47.306;8.608;2022-08-21T12:57:17;1.80;;;0.70;;
57461;SDS011;43308;47.306;8.608;2022-08-21T12:59:50;1.08;;;0.65;;
57461;SDS011;43308;47.306;8.608;2022-08-21T13:02:19;1.35;;;0.60;;
57461;SDS011;43308;47.306;8.608;2022-08-21T13:04:52;2.20;;;0.70;;
57461;SDS011;43308;47.306;8.608;2022-08-21T13:07:25;1.65;;;0.50;;
57461;SDS011;43308;47.306;8.608;2022-08-21T13:09:57;2.08;;;0.38;;
57461;SDS011;43308;47.306;8.608;2022-08-21T13:12:26;1.35;;;0.57;;
57461;SDS011;43308;47.306;8.608;2022-08-21T13:14:56;0.85;;;0.70;;
57461;SDS011;43308;47.306;8.608;2022-08-21T13:17:25;1.63;;;1.20;;
57461;SDS011;43308;47.306;8.608;2022-08-21T13:20:03;1.70;;;1.00;;
57461;SDS011;43308;47.306;8.608;2022-08-21T13:22:39;0.68;;;0.60;;
57461;SDS011;43308;47.306;8.608;2022-08-21T13:25:09;1.65;;;0.40;;
57461;SDS011;43308;47.306;8.608;2022-08-21T13:27:37;1.23;;;0.52;;
57461;SDS011;43308;47.306;8.608;2022-08-21T13:30:06;1.63;;;0.68;;
57461;SDS011;43308;47.306;8.608;2022-08-21T13:32:39;1.63;;;0.60;;
57461;SDS011;43308;47.306;8.608;2022-08-21T13:35:11;4.47;;;0.57;;
57461;SDS011;43308;47.306;8.608;2022-08-21T13:37:42;1.90;;;0.77;;
57461;SDS011;43308;47.306;8.608;2022-08-21T13:40:12;1.52;;;0.50;;
57461;SDS011;43308;47.306;8.608;2022-08-21T13:42:43;0.90;;;0.32;;
57461;SDS011;43308;47.306;8.608;2022-08-21T13:45:14;0.70;;;0.40;;
57461;SDS011;43308;47.306;8.608;2022-08-21T13:47:45;0.70;;;0.30;;
57461;SDS011;43308;47.306;8.608;2022-08-21T13:50:16;0.88;;;0.50;;
57461;SDS011;43308;47.306;8.608;2022-08-21T13:52:49;0.70;;;0.55;;
57461;SDS011;43308;47.306;8.608;2022-08-21T13:55:25;0.50;;;0.40;;
57461;SDS011;43308;47.306;8.608;2022-08-21T13:58:00;0.82;;;0.40;;
57461;SDS011;43308;47.306;8.608;2022-08-21T14:00:29;0.45;;;0.30;;
57461;SDS011;43308;47.306;8.608;2022-08-21T14:03:02;0.50;;;0.25;;
57461;SDS011;43308;47.306;8.608;2022-08-21T14:05:34;1.15;;;0.40;;
57461;SDS011;43308;47.306;8.608;2022-08-21T14:08:06;0.28;;;0.20;;
57461;SDS011;43308;47.306;8.608;2022-08-21T14:10:41;0.65;;;0.28;;
57461;SDS011;43308;47.306;8.608;2022-08-21T14:16:11;0.75;;;0.38;;
57461;SDS011;43308;47.306;8.608;2022-08-21T14:18:43;0.60;;;0.40;;
57461;SDS011;43308;47.306;8.608;2022-08-21T14:21:23;0.80;;;0.20;;
57461;SDS011;43308;47.306;8.608;2022-08-21T14:24:09;0.55;;;0.40;;
57461;SDS011;43308;47.306;8.608;2022-08-21T14:26:43;0.85;;;0.35;;
57461;SDS011;43308;47.306;8.608;2022-08-21T14:29:14;1.58;;;0.30;;
57461;SDS011;43308;47.306;8.608;2022-08-21T14:31:49;0.60;;;0.30;;
57461;SDS011;43308;47.306;8.608;2022-08-21T14:34:17;1.52;;;0.38;;
57461;SDS011;43308;47.306;8.608;2022-08-21T14:36:46;0.50;;;0.45;;
57461;SDS011;43308;47.306;8.608;2022-08-21T14:39:14;1.15;;;0.40;;
57461;SDS011;43308;47.306;8.608;2022-08-21T14:41:44;1.45;;;0.43;;
57461;SDS011;43308;47.306;8.608;2022-08-21T14:44:14;1.05;;;0.40;;
57461;SDS011;43308;47.306;8.608;2022-08-21T14:46:42;0.95;;;0.30;;
57461;SDS011;43308;47.306;8.608;2022-08-21T14:49:10;0.30;;;0.20;;
57461;SDS011;43308;47.306;8.608;2022-08-21T14:51:38;0.30;;;0.30;;
57461;SDS011;43308;47.306;8.608;2022-08-21T14:54:06;0.50;;;0.40;;
57461;SDS011;43308;47.306;8.608;2022-08-21T14:56:34;0.40;;;0.25;;
57461;SDS011;43308;47.306;8.608;2022-08-21T14:59:06;0.40;;;0.40;;
57461;SDS011;43308;47.306;8.608;2022-08-21T15:01:35;0.52;;;0.28;;
57461;SDS011;43308;47.306;8.608;2022-08-21T15:04:11;1.15;;;0.30;;
57461;SDS011;43308;47.306;8.608;2022-08-21T15:06:38;1.08;;;0.52;;
57461;SDS011;43308;47.306;8.608;2022-08-21T15:09:07;0.75;;;0.38;;
57461;SDS011;43308;47.306;8.608;2022-08-21T15:11:38;0.40;;;0.25;;
57461;SDS011;43308;47.306;8.608;2022-08-21T15:14:07;1.35;;;0.38;;
57461;SDS011;43308;47.306;8.608;2022-08-21T15:16:46;2.40;;;0.30;;
57461;SDS011;43308;47.306;8.608;2022-08-21T15:19:14;1.23;;;0.40;;
57461;SDS011;43308;47.306;8.608;2022-08-21T15:21:41;0.70;;;0.60;;
57461;SDS011;43308;47.306;8.608;2022-08-21T15:24:13;0.32;;;0.28;;
57461;SDS011;43308;47.306;8.608;2022-08-21T15:26:40;0.43;;;0.25;;
57461;SDS011;43308;47.306;8.608;2022-08-21T15:29:08;0.20;;;0.20;;
57461;SDS011;43308;47.306;8.608;2022-08-21T15:31:37;0.43;;;0.20;;
57461;SDS011;43308;47.306;8.608;2022-08-21T15:34:18;1.45;;;0.10;;
57461;SDS011;43308;47.306;8.608;2022-08-21T15:36:49;0.43;;;0.30;;
57461;SDS011;43308;47.306;8.608;2022-08-21T15:39:23;0.55;;;0.30;;
57461;SDS011;43308;47.306;8.608;2022-08-21T15:41:51;0.50;;;0.17;;
57461;SDS011;43308;47.306;8.608;2022-08-21T15:44:18;0.47;;;0.20;;
57461;SDS011;43308;47.306;8.608;2022-08-21T15:46:46;0.65;;;0.28;;
57461;SDS011;43308;47.306;8.608;2022-08-21T15:49:15;0.47;;;0.20;;
57461;SDS011;43308;47.306;8.608;2022-08-21T15:51:46;0.30;;;0.10;;
57461;SDS011;43308;47.306;8.608;2022-08-21T15:54:13;1.75;;;0.32;;
57461;SDS011;43308;47.306;8.608;2022-08-21T15:56:45;3.05;;;0.30;;
57461;SDS011;43308;47.306;8.608;2022-08-21T15:59:17;1.25;;;0.28;;
57461;SDS011;43308;47.306;8.608;2022-08-21T16:01:52;0.15;;;0.15;;
57461;SDS011;43308;47.306;8.608;2022-08-21T16:04:21;1.25;;;0.10;;
57461;SDS011;43308;47.306;8.608;2022-08-21T16:06:53;0.68;;;0.30;;
57461;SDS011;43308;47.306;8.608;2022-08-21T16:09:22;0.50;;;0.20;;
57461;SDS011;43308;47.306;8.608;2022-08-21T16:11:51;0.35;;;0.15;;
57461;SDS011;43308;47.306;8.608;2022-08-21T16:14:18;0.95;;;0.10;;
57461;SDS011;43308;47.306;8.608;2022-08-21T16:16:45;0.75;;;0.50;;
57461;SDS011;43308;47.306;8.608;2022-08-21T16:19:12;0.73;;;0.10;;
57461;SDS011;43308;47.306;8.608;2022-08-21T16:21:40;0.77;;;0.20;;
57461;SDS011;43308;47.306;8.608;2022-08-21T16:24:07;0.70;;;0.20;;
57461;SDS011;43308;47.306;8.608;2022-08-21T16:26:34;0.35;;;0.20;;
57461;SDS011;43308;47.306;8.608;2022-08-21T16:29:03;0.45;;;0.30;;
57461;SDS011;43308;47.306;8.608;2022-08-21T16:31:34;0.50;;;0.28;;
57461;SDS011;43308;47.306;8.608;2022-08-21T16:34:01;0.90;;;0.28;;
57461;SDS011;43308;47.306;8.608;2022-08-21T16:36:28;0.35;;;0.20;;
57461;SDS011;43308;47.306;8.608;2022-08-21T16:38:56;0.52;;;0.30;;
57461;SDS011;43308;47.306;8.608;2022-08-21T16:41:25;0.55;;;0.30;;
57461;SDS011;43308;47.306;8.608;2022-08-21T16:43:56;2.20;;;0.50;;
57461;SDS011;43308;47.306;8.608;2022-08-21T16:46:24;2.65;;;0.25;;
57461;SDS011;43308;47.306;8.608;2022-08-21T16:48:52;0.80;;;0.52;;
57461;SDS011;43308;47.306;8.608;2022-08-21T16:51:19;0.70;;;0.50;;
57461;SDS011;43308;47.306;8.608;2022-08-21T16:53:46;0.90;;;0.60;;
57461;SDS011;43308;47.306;8.608;2022-08-21T16:56:13;0.75;;;0.30;;
57461;SDS011;43308;47.306;8.608;2022-08-21T16:58:41;0.68;;;0.30;;
57461;SDS011;43308;47.306;8.608;2022-08-21T17:01:13;2.13;;;1.20;;
57461;SDS011;43308;47.306;8.608;2022-08-21T17:03:46;1.83;;;1.15;;
57461;SDS011;43308;47.306;8.608;2022-08-21T17:06:16;0.57;;;0.50;;
57461;SDS011;43308;47.306;8.608;2022-08-21T17:08:43;2.13;;;0.43;;
57461;SDS011;43308;47.306;8.608;2022-08-21T17:11:15;3.35;;;0.30;;
57461;SDS011;43308;47.306;8.608;2022-08-21T17:13:48;3.60;;;0.43;;
57461;SDS011;43308;47.306;8.608;2022-08-21T17:16:15;3.70;;;1.02;;
57461;SDS011;43308;47.306;8.608;2022-08-21T17:18:44;3.30;;;0.60;;
57461;SDS011;43308;47.306;8.608;2022-08-21T17:21:12;0.75;;;0.40;;
57461;SDS011;43308;47.306;8.608;2022-08-21T17:23:39;2.25;;;0.70;;
57461;SDS011;43308;47.306;8.608;2022-08-21T17:26:07;3.33;;;0.50;;
57461;SDS011;43308;47.306;8.608;2022-08-21T17:28:35;2.58;;;0.50;;
57461;SDS011;43308;47.306;8.608;2022-08-21T17:31:04;1.73;;;0.80;;
57461;SDS011;43308;47.306;8.608;2022-08-21T17:33:35;2.17;;;0.50;;
57461;SDS011;43308;47.306;8.608;2022-08-21T17:36:09;2.28;;;0.70;;
57461;SDS011;43308;47.306;8.608;2022-08-21T17:38:36;1.00;;;0.60;;
57461;SDS011;43308;47.306;8.608;2022-08-21T17:41:03;1.33;;;0.52;;
57461;SDS011;43308;47.306;8.608;2022-08-21T17:43:32;2.50;;;1.20;;
57461;SDS011;43308;47.306;8.608;2022-08-21T17:45:59;5.15;;;2.13;;
57461;SDS011;43308;47.306;8.608;2022-08-21T17:48:27;4.68;;;1.80;;
57461;SDS011;43308;47.306;8.608;2022-08-21T17:50:54;5.68;;;1.85;;
57461;SDS011;43308;47.306;8.608;2022-08-21T17:53:22;4.47;;;2.55;;
57461;SDS011;43308;47.306;8.608;2022-08-21T17:55:49;3.47;;;2.33;;
57461;SDS011;43308;47.306;8.608;2022-08-21T17:58:17;4.85;;;3.17;;
57461;SDS011;43308;47.306;8.608;2022-08-21T18:00:44;4.82;;;2.85;;
57461;SDS011;43308;47.306;8.608;2022-08-21T18:03:13;4.30;;;2.53;;
57461;SDS011;43308;47.306;8.608;2022-08-21T18:05:44;2.25;;;1.92;;
57461;SDS011;43308;47.306;8.608;2022-08-21T18:08:13;2.92;;;1.00;;
57461;SDS011;43308;47.306;8.608;2022-08-21T18:10:43;2.20;;;0.80;;
57461;SDS011;43308;47.306;8.608;2022-08-21T18:13:13;2.83;;;0.65;;
57461;SDS011;43308;47.306;8.608;2022-08-21T18:15:45;3.30;;;0.73;;
57461;SDS011;43308;47.306;8.608;2022-08-21T18:18:15;0.82;;;0.47;;
57461;SDS011;43308;47.306;8.608;2022-08-21T18:20:42;2.08;;;0.50;;
57461;SDS011;43308;47.306;8.608;2022-08-21T18:23:09;0.82;;;0.47;;
57461;SDS011;43308;47.306;8.608;2022-08-21T18:25:36;2.60;;;0.68;;
57461;SDS011;43308;47.306;8.608;2022-08-21T18:28:05;1.85;;;0.68;;
57461;SDS011;43308;47.306;8.608;2022-08-21T18:30:35;0.73;;;0.60;;
57461;SDS011;43308;47.306;8.608;2022-08-21T18:33:05;1.65;;;0.52;;
57461;SDS011;43308;47.306;8.608;2022-08-21T18:35:34;0.70;;;0.50;;
57461;SDS011;43308;47.306;8.608;2022-08-21T18:38:02;2.22;;;0.52;;
57461;SDS011;43308;47.306;8.608;2022-08-21T20:43:28;3.35;;;0.80;;
57461;SDS011;43308;47.306;8.608;2022-08-21T20:45:58;1.63;;;0.70;;
57461;SDS011;43308;47.306;8.608;2022-08-21T20:48:26;1.00;;;0.90;;
57461;SDS011;43308;47.306;8.608;2022-08-21T20:50:58;1.90;;;0.80;;
57461;SDS011;43308;47.306;8.608;2022-08-21T20:53:33;1.50;;;0.70;;
57461;SDS011;43308;47.306;8.608;2022-08-21T20:56:05;2.05;;;0.88;;
57461;SDS011;43308;47.306;8.608;2022-08-21T20:58:36;4.30;;;0.70;;
